Time;durP1;ratioP1;P1;durP2;ratioP2;P2;SDS_P1;SDS_P2;PMS_P1;PMS_P2;Temp;Humidity;BMP_temperature;BMP_pressure;BME280_temperature;BME280_humidity;BME280_pressure;Samples;Min_cycle;Max_cycle;Signal;HPM_P1;HPM_P2
2022/05/11 00:00:01;;;;;;;2.20;2.00;;;22.40;38.60;;;26.12;25.29;101007.03;5093001;28;20067;-16
2022/05/11 00:02:26;;;;;;;2.03;1.90;;;22.40;38.60;;;26.14;25.32;101010.44;5093081;28;20070;-16
2022/05/11 00:04:52;;;;;;;1.70;1.60;;;22.40;38.60;;;26.19;25.40;101012.75;5093085;28;20480;-16
2022/05/11 00:07:18;;;;;;;1.80;1.70;;;22.40;38.60;;;26.09;25.30;100993.03;5093110;28;20051;-17
2022/05/11 00:09:44;;;;;;;1.85;1.75;;;22.40;38.60;;;26.13;25.44;100998.03;5093050;28;20105;-17
2022/05/11 00:12:10;;;;;;;2.17;1.90;;;22.40;38.60;;;26.13;25.33;100994.47;5092995;28;20067;-17
2022/05/11 00:14:36;;;;;;;1.88;1.67;;;22.40;38.70;;;26.17;25.29;100998.63;5092905;28;20052;-16
2022/05/11 00:17:01;;;;;;;2.85;1.77;;;22.40;38.70;;;26.17;25.33;100998.63;5092754;28;20129;-16
2022/05/11 00:19:28;;;;;;;1.73;1.63;;;22.40;38.70;;;26.14;25.25;101004.25;5056663;28;20162;-17
2022/05/11 00:21:54;;;;;;;3.25;1.63;;;22.40;38.70;;;26.18;25.32;100995.00;5092405;28;20051;-16
2022/05/11 00:24:19;;;;;;;2.05;1.88;;;22.40;38.70;;;26.14;25.40;100988.16;5093033;28;20047;-16
2022/05/11 00:26:45;;;;;;;1.73;1.63;;;22.40;38.70;;;26.20;25.23;101011.78;5092635;28;20044;-17
2022/05/11 00:29:11;;;;;;;2.03;1.83;;;22.30;38.60;;;26.18;25.33;101008.38;5092767;28;20044;-17
2022/05/11 00:31:37;;;;;;;1.50;1.40;;;22.30;38.60;;;26.19;25.39;101002.03;5092703;28;20498;-17
2022/05/11 00:34:03;;;;;;;1.70;1.60;;;22.40;38.70;;;26.19;25.29;101002.03;5093172;28;20093;-17
2022/05/11 00:36:29;;;;;;;1.73;1.63;;;22.40;38.70;;;26.14;25.15;100994.38;5093000;28;20131;-17
2022/05/11 00:38:55;;;;;;;2.13;1.73;;;22.40;38.70;;;26.16;25.26;101000.47;5092604;28;20040;-17
2022/05/11 00:41:21;;;;;;;2.65;1.98;;;22.30;38.60;;;26.17;25.36;101004.00;5092806;28;20059;-16
2022/05/11 00:43:57;;;;;;;1.70;1.60;;;22.30;38.70;;;26.12;25.27;100996.31;5092579;28;20056;-17
2022/05/11 00:46:34;;;;;;;1.80;1.70;;;22.40;38.70;;;26.16;25.23;100995.13;5092627;28;20497;-17
2022/05/11 00:51:56;;;;;;;1.70;1.60;;;22.40;38.70;;;26.13;25.45;100987.31;5077553;28;20074;-16
2022/05/11 00:54:23;;;;;;;2.15;1.88;;;22.40;38.80;;;26.11;25.32;100989.28;5092388;28;20044;-17
2022/05/11 00:56:55;;;;;;;1.63;1.52;;;22.30;38.70;;;26.10;25.40;100973.31;5092306;28;20052;-17
2022/05/11 00:59:26;;;;;;;2.42;1.70;;;22.30;38.70;;;26.07;25.40;100964.53;5092300;28;20048;-17
2022/05/11 01:01:52;;;;;;;;;;;22.30;38.70;;;26.23;25.10;100965.97;5092489;28;20048;-17
2022/05/11 01:04:21;;;;;;;2.15;1.60;;;22.30;38.70;;;26.16;25.17;100959.41;5074725;28;20318;-17
2022/05/11 01:06:47;;;;;;;1.73;1.63;;;22.30;38.70;;;26.11;25.24;100954.44;5092124;28;20506;-17
2022/05/11 01:09:13;;;;;;;1.90;1.80;;;22.30;38.70;;;26.13;25.23;100951.59;5092235;28;20414;-16
2022/05/11 01:11:51;;;;;;;2.05;1.90;;;22.30;38.70;;;26.08;25.38;100957.38;5093308;28;20048;-16
2022/05/11 01:14:21;;;;;;;1.67;1.58;;;22.30;38.70;;;26.15;25.16;100963.06;5095756;28;20131;-16
2022/05/11 01:16:48;;;;;;;2.35;1.85;;;22.30;38.70;;;26.11;25.34;100970.53;5095873;28;20051;-17
2022/05/11 01:19:29;;;;;;;1.58;1.48;;;22.30;38.70;;;26.13;25.25;100970.38;5077408;28;20051;-16
2022/05/11 01:22:10;;;;;;;1.55;1.45;;;22.30;38.80;;;26.08;25.35;100962.72;5095847;28;20484;-16
2022/05/11 01:24:41;;;;;;;1.70;1.60;;;22.30;38.80;;;26.10;25.34;100963.44;5077343;28;20110;-16
2022/05/11 01:27:27;;;;;;;2.30;1.60;;;22.30;38.70;;;26.09;25.55;100959.06;5077400;28;20052;-17
2022/05/11 01:29:56;;;;;;;2.10;1.90;;;22.30;38.70;;;26.12;25.24;100963.31;5095451;28;20044;-16
2022/05/11 01:32:24;;;;;;;1.75;1.60;;;22.30;38.70;;;26.14;25.33;100956.00;5095385;28;20102;-16
2022/05/11 01:35:01;;;;;;;2.20;1.83;;;22.30;38.70;;;26.07;25.49;100932.38;5095589;28;20043;-17
2022/05/11 01:37:27;;;;;;;1.80;1.70;;;22.30;38.80;;;26.13;25.37;100936.41;5095751;28;20110;-18
2022/05/11 01:39:52;;;;;;;1.67;1.58;;;22.30;38.80;;;26.13;25.37;100938.22;5077361;28;20048;-17
2022/05/11 01:42:20;;;;;;;1.98;1.67;;;22.30;38.80;;;26.09;25.34;100932.25;5095624;28;20522;-16
2022/05/11 01:44:47;;;;;;;1.50;1.40;;;22.30;38.80;;;26.14;25.41;100935.41;5095888;28;20051;-16
2022/05/11 01:47:13;;;;;;;1.73;1.63;;;22.30;38.80;;;26.16;25.31;100927.25;5095233;28;20444;-17
2022/05/11 01:49:39;;;;;;;1.92;1.70;;;22.30;38.80;;;26.12;25.34;100934.69;5094989;28;20096;-17
2022/05/11 01:52:05;;;;;;;1.55;1.45;;;22.30;38.80;;;26.15;25.23;100944.31;5095032;28;20047;-16
2022/05/11 01:54:31;;;;;;;1.60;1.50;;;22.30;38.80;;;26.12;25.33;100928.50;5094974;28;20047;-17
2022/05/11 01:56:56;;;;;;;1.70;1.60;;;22.30;38.80;;;26.14;25.42;100931.88;5095402;28;20051;-17
2022/05/11 01:59:23;;;;;;;1.92;1.70;;;22.30;38.80;;;26.09;25.34;100926.06;5094826;28;20047;-17
2022/05/11 02:01:49;;;;;;;2.38;1.70;;;22.30;38.80;;;26.13;25.45;100931.03;5095558;28;20058;-16
2022/05/11 02:09:43;;;;;;;1.77;1.67;;;22.30;38.80;;;26.04;25.42;100908.53;5095121;28;20147;-17
2022/05/11 02:12:11;;;;;;;1.73;1.55;;;22.30;38.80;;;26.12;25.45;100923.13;5094553;28;20134;-16
2022/05/11 02:14:37;;;;;;;1.70;1.60;;;22.30;38.80;;;26.10;25.24;100928.63;5094545;28;20055;-17
2022/05/11 02:17:04;;;;;;;1.80;1.63;;;22.30;38.80;;;26.13;25.33;100924.81;5075352;28;20412;-17
2022/05/11 02:19:30;;;;;;;1.90;1.58;;;22.30;38.80;;;26.03;25.27;100904.16;5094257;28;20080;-17
2022/05/11 02:21:55;;;;;;;2.10;1.70;;;22.30;38.90;;;26.06;25.38;100911.94;5094318;28;20052;-16
2022/05/11 02:24:21;;;;;;;1.70;1.60;;;22.30;38.90;;;26.07;25.47;100913.63;5094773;28;20109;-16
2022/05/11 02:26:47;;;;;;;1.83;1.60;;;22.30;38.90;;;26.13;25.39;100922.13;5074708;28;20098;-16
2022/05/11 02:29:13;;;;;;;1.65;1.55;;;22.30;38.90;;;26.07;25.38;100896.72;5094351;28;20487;-17
2022/05/11 02:31:39;;;;;;;1.77;1.67;;;22.30;38.80;;;26.12;25.33;100904.38;5094402;28;20480;-17
2022/05/11 02:34:06;;;;;;;1.80;1.58;;;22.30;38.80;;;26.09;25.46;100892.06;5094452;28;20036;-17
2022/05/11 02:36:34;;;;;;;1.60;1.50;;;22.30;38.80;;;26.02;25.44;100872.97;5076366;28;20083;-16
2022/05/11 02:39:00;;;;;;;2.38;1.50;;;22.30;38.90;;;26.10;25.37;100880.38;5094383;28;20052;-17
2022/05/11 02:41:26;;;;;;;2.45;1.65;;;22.30;38.90;;;26.00;25.31;100858.00;5094220;28;20040;-17
2022/05/11 02:43:52;;;;;;;1.77;1.67;;;22.30;38.80;;;26.06;25.25;100873.56;5094311;28;20051;-17
2022/05/11 02:46:18;;;;;;;1.88;1.77;;;22.30;38.90;;;26.03;25.32;100881.88;5094328;28;20051;-16
2022/05/11 02:48:43;;;;;;;1.50;1.40;;;22.30;38.90;;;26.05;25.48;100883.44;5094111;28;20052;-17
2022/05/11 02:51:10;;;;;;;3.67;1.95;;;22.20;38.80;;;26.10;25.56;100888.41;5076511;28;20177;-17
2022/05/11 02:53:36;;;;;;;2.33;1.63;;;22.20;38.90;;;26.02;25.48;100875.66;5094197;28;20127;-17
2022/05/11 02:56:02;;;;;;;2.88;1.67;;;22.20;38.80;;;26.10;25.45;100885.75;5093927;28;20070;-17
2022/05/11 02:58:34;;;;;;;1.77;1.67;;;22.20;38.80;;;26.10;25.54;100888.41;5094039;28;20083;-16
2022/05/11 03:01:02;;;;;;;1.70;1.60;;;22.20;38.80;;;26.04;25.40;100870.16;5094046;28;20120;-17
2022/05/11 03:03:33;;;;;;;1.52;1.42;;;22.20;38.90;;;26.01;25.60;100876.66;5094298;28;20044;-16
2022/05/11 03:06:01;;;;;;;1.73;1.63;;;22.20;38.90;;;26.10;25.47;100893.78;5094215;28;20040;-17
2022/05/11 03:08:29;;;;;;;1.67;1.55;;;22.20;38.90;;;26.10;25.53;100887.56;5094544;28;20048;-15
2022/05/11 03:10:55;;;;;;;1.80;1.65;;;22.20;38.90;;;26.09;25.44;100889.38;5094215;28;20078;-16
2022/05/11 03:13:20;;;;;;;2.72;2.13;;;22.20;38.90;;;26.09;25.30;100883.19;5093791;28;20048;-16
2022/05/11 03:15:47;;;;;;;2.03;1.80;;;22.20;38.90;;;26.06;25.45;100879.78;5093638;28;20087;-21
2022/05/11 03:18:14;;;;;;;1.80;1.70;;;22.20;38.90;;;26.06;25.45;100878.91;5093796;28;20554;-16
2022/05/11 03:20:40;;;;;;;2.05;1.75;;;22.20;38.90;;;26.09;25.44;100893.91;5094292;28;20051;-16
2022/05/11 03:23:06;;;;;;;1.90;1.58;;;22.20;38.90;;;26.01;25.55;100871.28;5093606;28;20051;-16
2022/05/11 03:25:31;;;;;;;2.25;1.58;;;22.20;38.90;;;26.06;25.38;100878.91;5093686;28;20044;-16
2022/05/11 03:27:58;;;;;;;1.60;1.50;;;22.20;38.90;;;26.02;25.57;100872.13;5093940;28;20054;-16
2022/05/11 03:30:23;;;;;;;1.40;1.30;;;22.20;39.00;;;26.03;25.42;100873.84;5093592;28;20415;-16
2022/05/11 03:35:35;;;;;;;2.03;1.88;;;22.20;39.00;;;26.07;25.37;100876.09;5074540;28;20047;-16
2022/05/11 03:38:01;;;;;;;1.73;1.60;;;22.20;38.90;;;26.03;25.66;100865.81;5093252;28;20427;-16
2022/05/11 03:40:27;;;;;;;1.52;1.42;;;22.20;39.00;;;26.09;25.38;100865.28;5093665;28;20069;-16
2022/05/11 03:42:53;;;;;;;1.60;1.50;;;22.20;39.00;;;26.02;25.55;100848.00;5093414;28;20044;-16
2022/05/11 03:45:23;;;;;;;2.03;1.70;;;22.20;39.00;;;26.02;25.50;100853.38;5093387;28;20048;-16
2022/05/11 03:47:49;;;;;;;1.63;1.53;;;22.20;39.00;;;26.03;25.45;100847.03;5093418;28;20043;-16
2022/05/11 03:50:20;;;;;;;1.63;1.52;;;22.20;39.00;;;26.05;25.28;100843.25;5093165;28;20385;-16
2022/05/11 03:52:46;;;;;;;;;;;22.20;38.90;;;26.15;25.41;100835.28;5094070;28;20044;-15
2022/05/11 03:55:12;;;;;;;1.52;1.42;;;22.20;39.00;;;26.13;25.46;100836.38;5093243;28;20280;-16
2022/05/11 03:57:39;;;;;;;1.70;1.60;;;22.20;38.90;;;26.08;25.36;100831.44;5093085;28;20112;-18
2022/05/11 04:00:21;;;;;;;1.48;1.38;;;22.20;38.90;;;25.98;25.53;100828.66;5093089;28;20571;-16
2022/05/11 04:02:49;;;;;;;1.85;1.75;;;22.20;38.90;;;26.07;25.38;100837.75;5093087;28;20043;-16
2022/05/11 04:05:15;;;;;;;2.25;1.65;;;22.20;38.90;;;26.01;25.57;100828.41;5092962;28;20476;-16
2022/05/11 04:07:42;;;;;;;1.95;1.70;;;22.20;39.00;;;25.99;25.33;100825.00;5074702;28;20058;-16
2022/05/11 04:10:14;;;;;;;1.58;1.40;;;22.20;38.90;;;26.01;25.52;100822.19;5093206;28;20048;-16
2022/05/11 04:12:40;;;;;;;1.50;1.38;;;22.20;38.90;;;25.99;25.54;100813.44;5092944;28;20044;-16
2022/05/11 04:15:07;;;;;;;1.50;1.40;;;22.20;38.90;;;26.06;25.56;100830.69;5092895;28;20048;-16
2022/05/11 04:17:34;;;;;;;1.60;1.50;;;22.20;39.00;;;26.06;25.48;100828.88;5092402;28;20090;-16
2022/05/11 04:20:00;;;;;;;1.52;1.40;;;22.20;38.90;;;26.06;25.51;100836.91;5093115;28;20040;-16
2022/05/11 04:22:26;;;;;;;1.83;1.63;;;22.20;38.90;;;26.05;25.50;100832.53;5074110;28;20052;-16
2022/05/11 04:24:52;;;;;;;1.60;1.50;;;22.20;39.00;;;26.04;25.45;100822.81;5093049;28;20054;-16
2022/05/11 04:27:18;;;;;;;1.60;1.50;;;22.20;39.00;;;26.04;25.49;100827.28;5072709;28;20052;-16
2022/05/11 04:29:44;;;;;;;1.67;1.30;;;22.20;39.00;;;26.00;25.54;100813.31;5093119;28;20051;-16
2022/05/11 04:32:11;;;;;;;1.90;1.70;;;22.20;39.00;;;26.03;25.69;100820.25;5092536;28;20391;-16
2022/05/11 04:34:41;;;;;;;1.83;1.60;;;22.20;39.00;;;26.00;25.52;100810.63;5092539;28;20085;-16
2022/05/11 04:37:07;;;;;;;2.08;1.58;;;22.20;39.00;;;26.03;25.51;100813.06;5093076;28;20052;-16
2022/05/11 04:39:34;;;;;;;1.45;1.35;;;22.20;38.90;;;26.02;25.57;100800.63;5091910;28;20062;-16
2022/05/11 04:41:59;;;;;;;1.63;1.52;;;22.20;38.90;;;26.03;25.50;100804.19;5073163;28;20048;-16
2022/05/11 04:44:25;;;;;;;1.92;1.55;;;22.20;39.00;;;26.07;25.48;100805.59;5092428;28;20056;-16
2022/05/11 04:46:51;;;;;;;1.83;1.70;;;22.20;38.90;;;26.03;25.48;100810.38;5093646;28;20055;-16
2022/05/11 04:49:19;;;;;;;1.60;1.48;;;22.20;38.90;;;26.06;25.59;100804.75;5096507;28;20048;-16
2022/05/11 04:52:00;;;;;;;1.77;1.63;;;22.20;38.90;;;26.06;25.50;100810.13;5096133;28;20105;-16
2022/05/11 04:54:26;;;;;;;1.60;1.50;;;22.20;39.00;;;26.05;25.49;100799.53;5096211;28;20463;-16
2022/05/11 04:56:52;;;;;;;1.70;1.60;;;22.20;38.90;;;26.05;25.49;100799.53;5077072;28;20048;-16
2022/05/11 04:59:18;;;;;;;1.58;1.48;;;22.20;39.00;;;26.05;25.60;100789.66;5095996;28;20101;-16
2022/05/11 05:01:45;;;;;;;2.20;1.90;;;22.30;39.00;;;26.04;25.58;100798.69;5095626;28;20047;-16
2022/05/11 05:04:11;;;;;;;1.70;1.60;;;22.20;39.00;;;26.02;25.50;100789.06;5095896;28;20056;-16
2022/05/11 05:06:38;;;;;;;1.75;1.65;;;22.20;38.90;;;26.12;25.43;100810.59;5095781;28;20102;-16
2022/05/11 05:09:06;;;;;;;1.50;1.40;;;22.20;39.00;;;26.05;25.54;100800.38;5096068;28;20079;-16
2022/05/11 05:11:33;;;;;;;1.90;1.67;;;22.20;39.00;;;26.10;25.55;100799.16;5095644;28;20135;-16
2022/05/11 05:13:59;;;;;;;1.60;1.50;;;22.30;39.00;;;26.12;25.52;100805.22;5096263;28;20441;-16
2022/05/11 05:16:25;;;;;;;1.40;1.30;;;22.30;39.10;;;26.09;25.47;100802.78;5095499;28;20094;-16
2022/05/11 05:18:51;;;;;;;1.75;1.65;;;22.30;39.00;;;26.09;25.38;100805.47;5095686;28;20048;-16
2022/05/11 05:21:17;;;;;;;1.80;1.65;;;22.30;39.00;;;26.06;25.55;100796.72;5095827;28;20093;-16
2022/05/11 05:23:44;;;;;;;1.52;1.42;;;22.20;39.00;;;26.04;25.53;100787.09;5095550;28;20056;-16
2022/05/11 05:26:09;;;;;;;1.90;1.70;;;22.20;39.00;;;26.09;25.31;100792.09;5095771;28;20083;-16
2022/05/11 05:31:21;;;;;;;1.73;1.63;;;22.30;39.00;;;26.14;25.52;100800.56;5095794;28;20044;-16
2022/05/11 05:33:49;;;;;;;2.08;1.63;;;22.30;39.10;;;26.14;25.53;100796.06;5095856;28;20048;-15
2022/05/11 05:36:15;;;;;;;1.58;1.48;;;22.30;39.10;;;26.15;25.51;100788.88;5095630;28;20088;-15
2022/05/11 05:38:42;;;;;;;1.83;1.73;;;22.30;39.00;;;26.10;25.55;100783.06;5095203;28;20383;-15
2022/05/11 05:41:10;;;;;;;2.28;1.88;;;22.30;39.00;;;26.07;25.49;100782.31;5095473;28;20418;-15
2022/05/11 05:43:36;;;;;;;1.55;1.40;;;22.30;39.10;;;26.15;25.55;100788.88;5095552;28;20051;-16
2022/05/11 05:46:02;;;;;;;1.70;1.60;;;22.30;39.00;;;26.14;25.62;100798.72;5095659;28;20044;-15
2022/05/11 05:48:28;;;;;;;1.45;1.35;;;22.30;39.10;;;26.10;25.48;100788.44;5075996;28;20052;-16
2022/05/11 05:51:04;;;;;;;1.70;1.60;;;22.30;39.10;;;26.14;25.60;100805.94;5095045;28;20066;-15
2022/05/11 05:53:29;;;;;;;1.90;1.70;;;22.30;39.10;;;26.11;25.57;100776.72;5095483;28;20055;-16
2022/05/11 05:55:55;;;;;;;1.50;1.40;;;22.30;39.10;;;26.06;25.45;100779.78;5095097;28;20510;-16
2022/05/11 05:58:21;;;;;;;1.73;1.63;;;22.30;39.10;;;26.10;25.56;100791.13;5094215;28;20048;-16
2022/05/11 06:00:47;;;;;;;1.80;1.60;;;22.20;39.10;;;26.12;25.44;100786.47;5095137;28;20059;-16
2022/05/11 06:03:22;;;;;;;1.85;1.70;;;22.20;39.10;;;26.12;25.79;100797.19;5094773;28;20047;-16
2022/05/11 06:05:48;;;;;;;1.50;1.40;;;22.20;39.10;;;26.14;25.55;100796.06;5075620;28;20056;-16
2022/05/11 06:08:15;;;;;;;1.90;1.80;;;22.20;39.10;;;26.14;25.44;100785.34;5094579;28;20044;-17
2022/05/11 06:10:45;;;;;;;1.70;1.60;;;22.20;39.10;;;26.10;25.56;100783.91;5094358;28;20480;-17
2022/05/11 06:13:14;;;;;;;1.58;1.48;;;22.20;39.10;;;26.05;25.54;100770.91;5094207;28;20467;-17
2022/05/11 06:15:41;;;;;;;2.15;1.80;;;22.20;39.20;;;26.08;25.58;100772.47;5094601;28;20048;-16
2022/05/11 06:18:09;;;;;;;1.98;1.58;;;22.20;39.10;;;26.12;25.66;100765.03;5093808;28;20048;-17
2022/05/11 06:20:36;;;;;;;1.58;1.48;;;22.30;39.20;;;26.13;25.54;100772.94;5094504;28;20063;-16
2022/05/11 06:23:03;;;;;;;1.52;1.42;;;22.20;39.10;;;26.14;25.62;100782.66;5094133;28;20075;-16
2022/05/11 06:25:31;;;;;;;1.60;1.50;;;22.30;39.20;;;26.08;25.58;100769.81;5076584;28;20044;-16
2022/05/11 06:27:58;;;;;;;2.35;1.50;;;22.30;39.20;;;26.13;25.55;100769.38;5094023;28;20124;-17
2022/05/11 06:30:25;;;;;;;2.10;1.90;;;22.20;39.20;;;26.10;25.62;100759.78;5094051;28;20074;-16
2022/05/11 06:32:51;;;;;;;2.20;2.00;;;22.20;39.20;;;26.14;25.48;100763.91;5094010;28;20044;-17
2022/05/11 06:35:17;;;;;;;1.80;1.70;;;22.20;39.20;;;26.13;25.44;100750.63;5094319;28;20048;-17
2022/05/11 06:37:44;;;;;;;2.03;1.50;;;22.30;39.20;;;26.12;25.54;100757.00;5094199;28;20052;-17
2022/05/11 06:40:12;;;;;;;1.70;1.60;;;22.20;39.20;;;26.14;25.67;100760.38;5093799;28;20044;-16
2022/05/11 06:42:38;;;;;;;2.05;1.85;;;22.20;39.20;;;26.14;25.54;100766.56;5093988;28;20130;-17
2022/05/11 06:45:05;;;;;;;2.10;1.90;;;22.30;39.20;;;26.09;25.59;100757.25;5093980;28;20138;-17
2022/05/11 06:47:33;;;;;;;1.65;1.55;;;22.20;39.20;;;26.09;25.59;100751.88;5094042;28;20044;-17
2022/05/11 06:49:59;;;;;;;1.90;1.60;;;22.30;39.20;;;26.09;25.61;100751.88;5093892;28;20437;-17
2022/05/11 06:52:25;;;;;;;1.70;1.60;;;22.30;39.20;;;26.09;25.58;100755.41;5093893;28;20453;-17
2022/05/11 07:00:21;;;;;;;1.88;1.65;;;22.30;39.20;;;26.15;25.66;100756.72;5078258;28;20478;-17
2022/05/11 07:02:47;;;;;;;1.85;1.60;;;22.30;39.20;;;26.07;25.63;100742.13;5093525;28;20040;-17
2022/05/11 07:05:13;;;;;;;1.77;1.67;;;22.30;39.20;;;26.16;25.65;100758.41;5093520;28;20483;-16
2022/05/11 07:07:40;;;;;;;1.48;1.38;;;22.30;39.20;;;26.13;25.55;100761.34;5093007;28;20055;-16
2022/05/11 07:10:07;;;;;;;1.88;1.70;;;22.30;39.20;;;26.15;25.65;100773.66;5092063;28;20492;-16
2022/05/11 07:12:35;;;;;;;1.70;1.60;;;22.20;39.20;;;26.17;25.62;100770.84;5074921;28;20476;-17
2022/05/11 07:15:08;;;;;;;1.92;1.75;;;22.30;39.20;;;26.10;25.57;100761.63;5093627;28;20044;-16
2022/05/11 07:17:42;;;;;;;1.65;1.55;;;22.30;39.30;;;26.13;25.48;100756.84;5093312;28;20414;-17
2022/05/11 07:20:19;;;;;;;2.25;1.70;;;22.30;39.30;;;26.07;25.69;100744.81;5093271;28;20472;-17
2022/05/11 07:22:45;;;;;;;1.75;1.65;;;22.30;39.30;;;26.11;25.60;100755.28;5093205;28;20056;-17
2022/05/11 07:25:14;;;;;;;1.98;1.77;;;22.20;39.30;;;26.07;25.63;100760.88;5093101;28;20441;-17
2022/05/11 07:27:42;;;;;;;1.60;1.50;;;22.20;39.20;;;26.11;25.64;100769.53;5093074;28;20536;-16
2022/05/11 07:30:15;;;;;;;1.75;1.60;;;22.20;39.30;;;26.06;25.59;100753.84;5092955;28;20044;-16
2022/05/11 07:32:40;;;;;;;1.95;1.50;;;22.20;39.20;;;26.13;25.65;100761.34;5093169;28;20058;-16
2022/05/11 07:35:07;;;;;;;1.95;1.73;;;22.20;39.80;;;26.06;25.52;100737.78;5075075;28;20135;-16
2022/05/11 07:37:33;;;;;;;2.10;1.85;;;22.20;39.30;;;26.12;25.69;100739.06;5093216;28;20054;-17
2022/05/11 07:40:00;;;;;;;2.22;1.90;;;22.20;39.30;;;26.12;25.68;100754.31;5093117;28;20044;-16
2022/05/11 07:42:27;;;;;;;2.33;1.88;;;22.20;39.30;;;26.05;25.70;100754.81;5091481;28;20056;-16
2022/05/11 07:44:53;;;;;;;1.63;1.52;;;22.20;39.30;;;26.12;25.77;100763.19;5092887;28;20484;-17
2022/05/11 07:47:21;;;;;;;2.00;1.80;;;22.20;39.30;;;26.07;25.70;100755.53;5092783;28;20075;-17
2022/05/11 07:49:49;;;;;;;1.48;1.38;;;22.30;39.40;;;26.12;25.82;100759.66;5092687;28;20478;-17
2022/05/11 07:52:15;;;;;;;1.50;1.40;;;22.20;39.30;;;26.10;25.67;100753.59;5092286;28;20484;-16
2022/05/11 07:54:42;;;;;;;2.03;1.83;;;22.20;39.30;;;26.07;25.80;100734.09;5091995;28;20052;-17
2022/05/11 07:59:59;;;;;;;1.92;1.70;;;22.20;39.30;;;26.06;25.74;100739.59;5092325;28;20131;-17
2022/05/11 08:02:28;;;;;;;3.58;1.90;;;22.20;39.30;;;26.11;25.80;100749.91;5074470;28;20381;-17
2022/05/11 08:05:08;;;;;;;2.05;1.55;;;22.20;39.80;;;26.03;25.86;100738.03;5092730;28;20075;-17
2022/05/11 08:07:43;;;;;;;2.53;1.65;;;22.20;39.80;;;26.10;25.76;100750.91;5092203;28;20048;-17
2022/05/11 08:10:17;;;;;;;2.20;1.90;;;22.20;39.70;;;25.96;25.92;100730.66;5057979;28;20476;-17
2022/05/11 08:12:43;;;;;;;2.58;1.90;;;22.30;39.70;;;26.11;25.87;100740.06;5092542;28;20062;-17
2022/05/11 08:15:12;;;;;;;1.70;1.60;;;22.30;39.60;;;26.13;25.76;100738.09;5092376;28;20048;-17
2022/05/11 08:17:39;;;;;;;1.70;1.60;;;22.30;39.60;;;26.14;25.71;100730.91;5092077;28;20079;-17
2022/05/11 08:20:14;;;;;;;1.85;1.63;;;22.30;39.60;;;26.13;25.85;100722.03;5091668;28;20048;-17
2022/05/11 08:22:45;;;;;;;1.70;1.60;;;22.30;39.60;;;26.16;25.85;100720.88;5092140;28;20445;-16
2022/05/11 08:25:14;;;;;;;3.00;1.70;;;22.30;39.60;;;26.17;25.91;100718.09;5092308;28;20498;-16
2022/05/11 08:27:41;;;;;;;1.60;1.50;;;22.30;39.50;;;26.07;25.94;100701.09;5092627;28;20044;-16
2022/05/11 08:35:39;;;;;;;2.15;1.65;;;22.30;39.50;;;26.14;25.73;100704.09;5092062;28;20101;-16
2022/05/11 08:38:05;;;;;;;2.30;2.10;;;22.30;39.50;;;26.15;25.79;100703.97;5090906;28;20383;-17
2022/05/11 08:40:35;;;;;;;1.88;1.70;;;22.30;39.50;;;26.14;25.72;100701.44;5090744;28;20090;-17
2022/05/11 08:43:02;;;;;;;2.90;1.75;;;22.30;39.50;;;26.11;25.97;100690.97;5072947;28;20048;-17
2022/05/11 08:46:03;;;;;;;1.90;1.55;;;22.30;39.50;;;26.20;25.69;100711.63;5091064;28;20036;-17
2022/05/11 08:49:01;;;;;;;1.98;1.67;;;22.30;39.40;;;26.20;25.72;100706.25;5057491;28;20048;-17
2022/05/11 08:51:39;;;;;;;1.90;1.77;;;22.30;39.40;;;26.21;25.63;100715.97;5072454;28;20044;-17
2022/05/11 08:54:14;;;;;;;1.92;1.70;;;22.30;39.40;;;26.21;25.71;100721.34;5057070;28;20545;-17
2022/05/11 08:56:42;;;;;;;1.70;1.60;;;22.30;39.40;;;26.21;25.67;100708.81;5073768;28;20056;-17
2022/05/11 08:59:21;;;;;;;2.20;1.95;;;22.30;39.40;;;26.19;25.76;100708.06;5073680;28;20040;-16
2022/05/11 09:01:55;;;;;;;2.28;1.73;;;22.30;39.40;;;26.18;25.66;100692.16;5088408;28;20048;-16
2022/05/11 09:04:39;;;;;;;1.63;1.52;;;22.30;39.40;;;26.21;25.81;100699.91;5072125;28;20056;-17
2022/05/11 09:07:05;;;;;;;1.90;1.58;;;22.40;39.40;;;26.22;25.58;100693.56;5071670;28;20468;-17
2022/05/11 09:09:31;;;;;;;2.05;1.77;;;22.40;39.40;;;26.27;25.63;100701.22;5091485;28;20075;-18
2022/05/11 09:11:57;;;;;;;2.08;1.88;;;22.40;39.40;;;26.28;25.80;100698.41;5091276;28;20472;-17
2022/05/11 09:14:38;;;;;;;2.00;1.85;;;22.40;39.30;;;26.25;25.77;100690.63;5091582;28;20068;-17
2022/05/11 09:17:09;;;;;;;2.10;1.90;;;22.40;39.30;;;26.31;25.64;100698.16;5091100;28;20048;-16
2022/05/11 09:19:35;;;;;;;2.00;1.75;;;22.40;39.30;;;26.29;25.67;100693.88;5072830;28;20287;-16
2022/05/11 09:22:24;;;;;;;1.95;1.85;;;22.40;39.30;;;26.33;25.70;100698.84;5091335;28;20052;-16
2022/05/11 09:24:58;;;;;;;2.10;1.90;;;22.50;39.40;;;26.36;25.51;100689.69;5073537;28;20059;-16
2022/05/11 09:27:34;;;;;;;1.60;1.50;;;22.40;39.30;;;26.38;25.44;100685.03;5071465;28;20404;-16
2022/05/11 09:30:25;;;;;;;2.75;2.05;;;22.50;39.20;;;26.40;25.72;100685.75;5091866;28;20388;-16
2022/05/11 09:33:12;;;;;;;2.42;1.88;;;22.50;39.10;;;26.36;25.44;100671.78;5074195;28;20447;-16
2022/05/11 09:35:38;;;;;;;1.90;1.70;;;22.60;39.10;;;26.50;25.60;100685.81;5093679;28;20097;-17
2022/05/11 09:38:17;;;;;;;2.03;1.83;;;22.60;39.10;;;26.47;25.53;100673.50;5094977;28;20131;-16
2022/05/11 09:41:02;;;;;;;2.05;1.65;;;22.60;39.00;;;26.44;25.67;100665.72;5094732;28;20044;-16
2022/05/11 09:43:52;;;;;;;1.90;1.60;;;22.60;39.00;;;26.49;25.36;100668.00;5075759;28;20067;-17
2022/05/11 09:46:29;;;;;;;2.03;1.60;;;22.60;39.00;;;26.56;25.47;100671.81;5093155;28;20497;-19
2022/05/11 09:49:26;;;;;;;1.60;1.50;;;22.60;39.00;;;26.56;25.40;100669.16;5093958;28;20479;-16
2022/05/11 09:51:58;;;;;;;2.95;1.63;;;22.70;38.90;;;26.55;25.49;100670.16;5094589;28;20149;-17
2022/05/11 09:54:51;;;;;;;2.03;1.67;;;22.70;39.00;;;26.53;25.34;100669.41;5075602;28;20492;-16
2022/05/11 09:57:27;;;;;;;2.85;2.00;;;22.70;39.00;;;26.55;25.43;100679.03;5094562;28;20050;-16
2022/05/11 10:00:16;;;;;;;1.80;1.70;;;22.60;39.00;;;26.57;25.33;100665.50;5093050;28;20139;-17
2022/05/11 10:02:50;;;;;;;2.42;2.20;;;22.70;39.00;;;26.56;25.33;100671.81;5093983;28;20500;-17
2022/05/11 10:05:26;;;;;;;2.92;2.45;;;22.70;39.00;;;26.55;25.33;100656.75;5075761;28;20060;-17
2022/05/11 10:08:03;;;;;;;1.90;1.80;;;22.70;39.00;;;26.58;25.35;100657.31;5075827;28;20072;-16
2022/05/11 10:10:40;;;;;;;1.80;1.70;;;22.70;39.00;;;26.63;25.42;100673.03;5076009;28;20138;-16
2022/05/11 10:13:21;;;;;;;1.92;1.80;;;22.70;38.90;;;26.65;25.36;100667.50;5075621;28;20056;-16
2022/05/11 10:21:56;;;;;;;2.60;1.60;;;22.80;38.90;;;26.69;25.40;100645.63;5077761;28;20085;-18
2022/05/11 10:25:11;;;;;;;1.70;1.60;;;22.80;39.00;;;26.71;25.30;100653.56;5076159;28;20408;-18
2022/05/11 10:28:16;;;;;;;1.92;1.73;;;22.80;38.90;;;26.67;25.49;100644.94;5093344;28;20068;-16
2022/05/11 10:31:12;;;;;;;2.20;1.80;;;22.80;38.90;;;26.69;25.33;100647.47;5074695;28;20080;-16
2022/05/11 10:34:40;;;;;;;2.45;1.90;;;22.80;38.90;;;26.67;25.25;100636.91;5094074;28;20407;-16
2022/05/11 10:37:15;;;;;;;1.63;1.50;;;22.80;38.90;;;26.68;25.46;100637.72;5094203;28;20047;-16
2022/05/11 10:40:00;;;;;;;1.73;1.63;;;22.70;38.90;;;26.67;25.32;100644.09;5074569;28;20087;-16
2022/05/11 10:42:36;;;;;;;1.70;1.60;;;22.80;39.00;;;26.61;25.32;100640.09;5076540;28;20059;-16
2022/05/11 10:45:20;;;;;;;2.92;1.80;;;22.70;38.90;;;26.69;25.48;100650.16;5094308;28;20480;-16
2022/05/11 10:48:11;;;;;;;1.95;1.85;;;22.80;39.00;;;26.69;25.51;100642.13;5093692;28;20052;-21
2022/05/11 10:50:56;;;;;;;1.67;1.50;;;22.80;39.00;;;26.67;25.30;100631.53;5093024;28;20041;-16
2022/05/11 10:54:05;;;;;;;1.65;1.52;;;22.80;39.00;;;26.71;25.34;100640.13;5073671;28;20131;-16
2022/05/11 10:57:03;;;;;;;1.65;1.55;;;22.80;39.00;;;26.66;25.35;100635.19;5092644;28;20040;-17
2022/05/11 11:00:01;;;;;;;2.03;1.80;;;22.80;39.00;;;26.58;25.25;100619.78;5093603;28;20400;-16